createdAt,value
2019-05-25T00:00:02.856Z,1016.21
2019-05-25T00:05:03.187Z,1016.21
2019-05-25T00:10:02.704Z,1016.25
2019-05-25T00:15:03.254Z,1016.16
2019-05-25T00:20:02.780Z,1016.21
2019-05-25T00:25:03.325Z,1016.24
2019-05-25T00:30:02.843Z,1016.27
2019-05-25T00:35:03.393Z,1016.36
2019-05-25T00:40:02.913Z,1016.35
2019-05-25T00:45:03.451Z,1016.39
2019-05-25T00:50:02.981Z,1016.39
2019-05-25T00:55:02.505Z,1016.42
2019-05-25T01:00:03.040Z,1016.45
2019-05-25T01:05:02.522Z,1016.43
2019-05-25T01:10:02.380Z,1016.44
2019-05-25T01:15:02.073Z,1016.44
2019-05-25T01:20:02.592Z,1016.44
2019-05-25T01:25:03.114Z,1016.4
2019-05-25T01:30:02.615Z,1016.42
2019-05-25T01:35:03.136Z,1016.45
2019-05-25T01:40:02.685Z,1016.47
2019-05-25T01:45:03.189Z,1016.44
2019-05-25T01:50:02.741Z,1016.51
2019-05-25T01:55:03.249Z,1016.46
2019-05-25T02:00:02.711Z,1016.47
2019-05-25T02:05:03.233Z,1016.52
2019-05-25T02:10:02.772Z,1016.52
2019-05-25T02:15:03.375Z,1016.59
2019-05-25T02:20:02.937Z,1016.63
2019-05-25T02:25:17.130Z,1016.61
2019-05-25T02:30:03.136Z,1016.65
2019-05-25T02:35:02.604Z,1016.64
2019-05-25T02:40:03.184Z,1016.73
2019-05-25T02:45:02.699Z,1016.82
2019-05-25T02:50:03.252Z,1016.86
2019-05-25T02:55:02.739Z,1016.83
2019-05-25T03:00:03.343Z,1016.77
2019-05-25T03:05:02.801Z,1016.77
2019-05-25T03:10:03.486Z,1016.8
2019-05-25T03:15:03.493Z,1016.75
2019-05-25T03:21:08.045Z,1016.79
2019-05-25T03:25:02.527Z,1016.74
2019-05-25T03:30:03.214Z,1016.83
2019-05-25T03:35:02.707Z,1016.86
2019-05-25T03:40:03.280Z,1016.86
2019-05-25T03:45:02.878Z,1016.79
2019-05-25T03:50:03.356Z,1016.87
2019-05-25T03:55:02.856Z,1016.85
2019-05-25T04:00:03.411Z,1016.89
2019-05-25T04:05:02.914Z,1016.91
2019-05-25T04:12:13.083Z,1016.89
2019-05-25T04:15:02.656Z,1016.88
2019-05-25T04:20:03.215Z,1016.97
2019-05-25T04:25:02.719Z,1016.98
2019-05-25T04:30:03.170Z,1016.88
2019-05-25T04:35:02.634Z,1016.94
2019-05-25T04:40:03.144Z,1016.92
2019-05-25T04:45:02.664Z,1017.04
2019-05-25T04:50:03.144Z,1017.02
2019-05-25T04:55:02.732Z,1017.05
2019-05-25T05:00:03.179Z,1017.04
2019-05-25T05:05:02.772Z,1017.08
2019-05-25T05:10:03.525Z,1017.15
2019-05-25T05:15:02.247Z,1017.07
2019-05-25T05:20:02.793Z,1017.12
2019-05-25T05:25:03.349Z,1017.18
2019-05-25T05:30:02.864Z,1017.18
2019-05-25T05:35:03.400Z,1017.17
2019-05-25T05:40:02.846Z,1017.19
2019-05-25T05:45:03.426Z,1017.19
2019-05-25T05:50:02.921Z,1017.28
2019-05-25T05:55:03.435Z,1017.35
2019-05-25T06:00:02.958Z,1017.29
2019-05-25T06:05:03.158Z,1017.38
2019-05-25T06:10:02.945Z,1017.39
2019-05-25T06:15:03.507Z,1017.41
2019-05-25T06:20:03.088Z,1017.41
2019-05-25T06:25:02.626Z,1017.38
2019-05-25T06:30:03.159Z,1017.35
2019-05-25T06:35:02.676Z,1017.49
2019-05-25T06:40:03.150Z,1017.49
2019-05-25T06:45:02.643Z,1017.49
2019-05-25T06:50:03.111Z,1017.49
2019-05-25T06:55:02.600Z,1017.54
2019-05-25T07:00:03.157Z,1017.55
2019-05-25T07:05:02.674Z,1017.57
2019-05-25T07:10:03.219Z,1017.59
2019-05-25T07:15:02.737Z,1017.54
2019-05-25T07:20:03.292Z,1017.58
2019-05-25T07:25:02.126Z,1017.59
2019-05-25T07:30:02.618Z,1017.65
2019-05-25T07:35:03.187Z,1017.68
2019-05-25T07:40:02.710Z,1017.68
2019-05-25T07:45:03.155Z,1017.67
2019-05-25T07:50:02.679Z,1017.78
2019-05-25T07:55:03.220Z,1017.73
2019-05-25T08:00:01.844Z,1017.73
2019-05-25T08:05:03.477Z,1017.72
2019-05-25T08:10:03.036Z,1017.77
2019-05-25T08:15:02.566Z,1017.67
2019-05-25T08:20:03.069Z,1017.65
2019-05-25T08:25:02.637Z,1017.64
2019-05-25T08:30:03.144Z,1017.63
2019-05-25T08:35:02.689Z,1017.65
2019-05-25T08:40:03.210Z,1017.65
2019-05-25T08:45:02.753Z,1017.65
2019-05-25T08:50:03.288Z,1017.7
2019-05-25T08:55:03.037Z,1017.57
2019-05-25T09:00:02.649Z,1017.6
2019-05-25T09:05:03.172Z,1017.66
2019-05-25T09:10:02.719Z,1017.69
2019-05-25T09:15:05.994Z,1017.73
2019-05-25T09:20:02.687Z,1017.71
2019-05-25T09:25:03.201Z,1017.8
2019-05-25T09:30:02.747Z,1017.78
2019-05-25T09:35:03.272Z,1017.76
2019-05-25T09:40:02.817Z,1017.75
2019-05-25T09:45:03.331Z,1017.83
2019-05-25T09:50:02.815Z,1017.82
2019-05-25T09:55:03.308Z,1017.79
2019-05-25T10:00:02.770Z,1017.83
2019-05-25T10:05:03.260Z,1017.78
2019-05-25T10:10:02.754Z,1017.78
2019-05-25T10:15:03.247Z,1017.8
2019-05-25T10:20:02.706Z,1017.8
2019-05-25T10:25:03.181Z,1017.88
2019-05-25T10:30:01.826Z,1017.77
2019-05-25T10:35:03.342Z,1017.84
2019-05-25T10:40:02.872Z,1017.7
2019-05-25T10:45:03.506Z,1017.69
2019-05-25T10:50:03.152Z,1017.66
2019-05-25T10:55:02.660Z,1017.7
2019-05-25T11:00:03.212Z,1017.66
2019-05-25T11:05:02.657Z,1017.66
2019-05-25T11:10:03.173Z,1017.69
2019-05-25T11:15:02.606Z,1017.66
2019-05-25T11:20:03.149Z,1017.59
2019-05-25T11:25:02.654Z,1017.62
2019-05-25T11:30:09.140Z,1017.62
2019-05-25T11:35:02.521Z,1017.6
2019-05-25T11:40:03.070Z,1017.69
2019-05-25T11:45:02.628Z,1017.65
2019-05-25T11:50:03.063Z,1017.62
2019-05-25T11:55:02.542Z,1017.56
2019-05-25T12:00:03.016Z,1017.56
2019-05-25T12:05:02.511Z,1017.42
2019-05-25T12:10:02.969Z,1017.41
2019-05-25T12:15:02.471Z,1017.36
2019-05-25T12:20:03.019Z,1017.23
2019-05-25T12:25:02.543Z,1017.23
2019-05-25T12:30:03.079Z,1017.12
2019-05-25T12:35:02.647Z,1017.22
2019-05-25T12:40:03.157Z,1017.21
2019-05-25T12:45:02.682Z,1017.09
2019-05-25T12:50:03.222Z,1017.03
2019-05-25T12:57:11.333Z,1017.14
2019-05-25T13:00:14.779Z,1017.09
2019-05-25T13:05:02.832Z,1017.08
2019-05-25T13:10:03.343Z,1017.07
2019-05-25T13:15:02.873Z,1017.04
2019-05-25T13:20:03.510Z,1017.0
2019-05-25T13:25:03.050Z,1017.04
2019-05-25T13:30:03.440Z,1017.01
2019-05-25T13:35:03.062Z,1016.95
2019-05-25T13:40:02.651Z,1016.92
2019-05-25T13:45:03.164Z,1016.84
2019-05-25T13:50:02.684Z,1016.86
2019-05-25T13:55:03.136Z,1016.82
2019-05-25T14:00:02.650Z,1016.76
2019-05-25T14:05:03.188Z,1016.77
2019-05-25T14:10:02.706Z,1016.71
2019-05-25T14:15:03.342Z,1016.73
2019-05-25T14:20:02.882Z,1016.75
2019-05-25T14:25:03.415Z,1016.72
2019-05-25T14:30:02.939Z,1016.73
2019-05-25T14:35:03.498Z,1016.84
2019-05-25T14:40:02.971Z,1016.8
2019-05-25T14:45:02.562Z,1016.79
2019-05-25T14:50:03.177Z,1016.75
2019-05-25T14:55:02.884Z,1016.68
2019-05-25T15:00:03.388Z,1016.74
2019-05-25T15:05:02.899Z,1016.65
2019-05-25T15:10:03.446Z,1016.65
2019-05-25T15:15:02.980Z,1016.63
2019-05-25T15:20:02.510Z,1016.61
2019-05-25T15:25:03.154Z,1016.56
2019-05-25T15:30:02.613Z,1016.45
2019-05-25T15:35:03.162Z,1016.53
2019-05-25T15:40:02.702Z,1016.49
2019-05-25T15:45:03.183Z,1016.39
2019-05-25T15:50:02.651Z,1016.44
2019-05-25T15:55:03.199Z,1016.47
2019-05-25T16:00:02.710Z,1016.49
2019-05-25T16:05:03.374Z,1016.46
2019-05-25T16:10:02.879Z,1016.42
2019-05-25T16:15:03.428Z,1016.37
2019-05-25T16:20:02.954Z,1016.39
2019-05-25T16:25:03.496Z,1016.34
2019-05-25T16:30:03.013Z,1016.28
2019-05-25T16:35:02.568Z,1016.31
2019-05-25T16:40:03.031Z,1016.32
2019-05-25T16:45:05.490Z,1016.31
2019-05-25T16:50:03.386Z,1016.34
2019-05-25T16:55:02.897Z,1016.28
2019-05-25T17:00:03.325Z,1016.29
2019-05-25T17:05:02.913Z,1016.35
2019-05-25T17:10:03.423Z,1016.35
2019-05-25T17:15:02.906Z,1016.3
2019-05-25T17:20:03.539Z,1016.26
2019-05-25T17:25:03.068Z,1016.31
2019-05-25T17:30:02.697Z,1016.29
2019-05-25T17:35:03.242Z,1016.28
2019-05-25T17:40:02.812Z,1016.25
2019-05-25T17:45:03.297Z,1016.24
2019-05-25T17:50:02.857Z,1016.27
2019-05-25T17:55:03.406Z,1016.3
2019-05-25T18:00:02.928Z,1016.31
2019-05-25T18:05:03.461Z,1016.34
2019-05-25T18:10:02.954Z,1016.34
2019-05-25T18:15:03.507Z,1016.4
2019-05-25T18:20:03.140Z,1016.44
2019-05-25T18:25:02.638Z,1016.44
2019-05-25T18:30:03.185Z,1016.45
2019-05-25T18:35:02.672Z,1016.4
2019-05-25T18:40:03.195Z,1016.44
2019-05-25T18:45:02.817Z,1016.37
2019-05-25T18:50:03.333Z,1016.4
2019-05-25T18:55:02.839Z,1016.44
2019-05-25T19:00:03.346Z,1016.49
2019-05-25T19:05:02.912Z,1016.49
2019-05-25T19:10:03.459Z,1016.45
2019-05-25T19:15:02.979Z,1016.49
2019-05-25T19:20:01.770Z,1016.47
2019-05-25T19:25:03.246Z,1016.53
2019-05-25T19:30:02.772Z,1016.51
2019-05-25T19:35:03.310Z,1016.65
2019-05-25T19:42:12.893Z,1016.71
2019-05-25T19:45:03.391Z,1016.63
2019-05-25T19:50:05.073Z,1016.77
2019-05-25T19:55:02.934Z,1016.83
2019-05-25T20:00:03.420Z,1016.89
2019-05-25T20:05:15.905Z,1016.86
2019-05-25T20:10:02.624Z,1016.87
2019-05-25T20:15:03.175Z,1016.9
2019-05-25T20:20:02.736Z,1016.93
2019-05-25T20:25:03.238Z,1016.97
2019-05-25T20:30:02.752Z,1016.97
2019-05-25T20:35:03.308Z,1016.95
2019-05-25T20:40:03.134Z,1016.89
2019-05-25T20:45:02.789Z,1016.76
2019-05-25T20:50:03.319Z,1016.86
2019-05-25T20:55:02.801Z,1016.85
2019-05-25T21:00:03.269Z,1016.86
2019-05-25T21:05:02.820Z,1016.75
2019-05-25T21:10:03.363Z,1016.84
2019-05-25T21:15:03.001Z,1016.88
2019-05-25T21:20:02.481Z,1016.93
2019-05-25T21:25:05.673Z,1016.88
2019-05-25T21:30:02.752Z,1016.89
2019-05-25T21:35:03.241Z,1016.85
2019-05-25T21:40:02.710Z,1016.87
2019-05-25T21:45:03.267Z,1016.77
2019-05-25T21:50:02.780Z,1016.85
2019-05-25T21:55:03.379Z,1016.86
2019-05-25T22:00:02.849Z,1016.81
2019-05-25T22:05:03.431Z,1016.77
2019-05-25T22:10:02.920Z,1016.65
2019-05-25T22:15:03.458Z,1016.62
2019-05-25T22:20:03.007Z,1016.64
2019-05-25T22:25:02.591Z,1016.66
2019-05-25T22:30:03.158Z,1016.62
2019-05-25T22:35:02.664Z,1016.57
2019-05-25T22:40:03.121Z,1016.52
2019-05-25T22:45:02.656Z,1016.46
2019-05-25T22:50:03.217Z,1016.45
2019-05-25T22:55:02.742Z,1016.48
2019-05-25T23:00:02.530Z,1016.4
2019-05-25T23:05:02.679Z,1016.45
2019-05-25T23:10:03.245Z,1016.39
2019-05-25T23:15:02.733Z,1016.24
2019-05-25T23:20:03.274Z,1016.12
2019-05-25T23:25:02.720Z,1016.15
2019-05-25T23:30:03.252Z,1016.19
2019-05-25T23:35:02.759Z,1016.03
2019-05-25T23:40:03.309Z,1015.99
2019-05-25T23:45:02.837Z,1016.03
2019-05-25T23:50:03.387Z,1016.0
2019-05-25T23:55:05.058Z,1015.97
